Latest Weather Observations for Cape Borda

IDS60801

Issued at 3:31 am CST Monday 29 May 2017 (issued every 30 minutes, with the page automatically refreshed every 10 minutes)

About weather observations | Map of weather stations | Latest weather observations for SA | Other Formats
Station Details ID: 022823 Name: CAPE BORDA Lat: -35.75 Lon: 136.60 Height: 158.0 m
Data from the previous 72 hours. | See also: Recent months at Cape Borda
Date/Time
CST
Temp
°C
App
Temp
°C
Dew
Point
°C
Rel
Hum
%
Delta-T
°C
Wind Press
QNH
hPa
Press
MSL
hPa
Rain since
9am
mm
Dir  Spd
km/h
Gust
km/h
Spd
kts
Gust
kts
29/03:30am 11.8 8.2 9.8 87 1.0 W 19 28 10 15 1019.6 - 0.4
29/03:00am 11.7 8.8 9.7 87 1.0 WSW 15 20 8 11 1019.5 1019.5 0.4
29/02:30am 11.4 9.0 10.0 91 0.7 WSW 13 17 7 9 1019.5 - 0.4
29/02:00am 11.3 8.4 9.5 89 0.9 WSW 15 22 8 12 1019.5 - 0.4
29/01:30am 11.2 8.7 9.6 90 0.8 WSW 13 19 7 10 1019.4 - 0.4
29/01:00am 11.5 8.2 9.5 87 1.0 SW 17 26 9 14 1019.5 - 0.4
29/12:30am 11.6 8.1 8.8 83 1.4 WSW 17 24 9 13 1019.5 - 0.4
29/12:00am 11.6 7.6 9.0 84 1.3 WSW 20 32 11 17 1019.6 1019.6 0.2
 
Date/Time
CST
Temp
°C
App
Temp
°C
Dew
Point
°C
Rel
Hum
%
Delta-T
°C
Wind Press
QNH
hPa
Press
MSL
hPa
Rain since
9am
mm
Dir  Spd
km/h
Gust
km/h
Spd
kts
Gust
kts
28/11:30pm 11.0 7.3 8.1 82 1.4 SW 17 24 9 13 1019.6 - 0.2
28/11:00pm 11.9 7.3 8.0 77 1.9 WSW 22 30 12 16 1019.5 - 0.2
28/10:30pm 11.9 8.2 7.8 76 2.0 SW 17 24 9 13 1019.5 - 0.2
28/10:00pm 11.1 7.5 8.3 83 1.4 SW 17 24 9 13 1019.6 - 0.2
28/09:30pm 11.3 7.1 8.3 82 1.5 SW 20 32 11 17 1019.5 - 0.2
28/09:00pm 11.7 7.4 8.0 78 1.8 SW 20 30 11 16 1019.5 1019.5 0.0
28/08:30pm 12.1 7.2 6.9 70 2.5 SW 22 30 12 16 1019.1 - 0.0
28/08:00pm 11.3 7.2 8.0 80 1.6 SW 19 28 10 15 1018.9 - 0.0
28/07:30pm 11.4 5.9 7.5 77 1.9 SW 26 43 14 23 1018.6 - 0.0
28/07:00pm 12.2 6.3 5.8 65 3.0 SSW 26 39 14 21 1018.3 - 0.0
28/06:30pm 12.3 6.5 4.4 58 3.6 SW 24 37 13 20 1017.9 - 0.0
28/06:00pm 11.7 5.8 3.9 59 3.5 SSW 24 35 13 19 1017.6 1017.6 0.0
28/05:30pm 11.9 4.6 2.5 52 4.1 SSW 30 43 16 23 1017.3 - 0.0
28/05:00pm 12.1 4.5 3.1 54 4.0 SSW 32 43 17 23 1017.0 - 0.0
28/04:40pm 12.4 5.3 3.8 55 3.9 SW 30 48 16 26 1016.8 - 0.0
28/04:30pm 12.3 4.7 3.9 56 3.8 SW 33 46 18 25 1016.7 - 0.0
28/04:00pm 12.5 5.0 3.3 53 4.1 SW 32 43 17 23 1016.4 - 0.0
28/03:44pm 12.5 5.1 3.9 56 3.9 SSW 32 50 17 27 1016.3 - 0.0
28/03:30pm 13.2 5.8 4.0 53 4.2 SSW 32 46 17 25 1016.2 - 0.0
28/03:02pm 13.2 5.0 2.9 49 4.6 SW 35 54 19 29 1015.8 - 0.0
28/03:00pm 13.3 5.2 3.0 49 4.6 SW 35 50 19 27 1015.7 1015.6 0.0
28/02:30pm 14.1 6.6 3.6 49 4.8 SW 32 54 17 29 1015.6 - 0.0
28/02:23pm 13.9 6.2 3.6 50 4.7 SW 33 52 18 28 1015.6 - 0.0
28/02:00pm 14.1 5.6 3.3 48 4.9 SW 37 52 20 28 1015.4 - 0.0
28/01:30pm 14.3 6.4 4.1 50 4.7 SW 35 48 19 26 1015.2 - 0.0
28/01:00pm 13.8 6.1 3.4 49 4.7 SW 33 48 18 26 1015.3 - 0.0
28/12:30pm 13.6 5.2 3.7 51 4.5 SW 37 54 20 29 1015.3 - 0.0
28/12:00pm 13.7 6.1 5.7 58 3.8 SW 35 48 19 26 1015.4 1015.3 0.0
28/11:37am 12.8 6.0 6.8 67 2.9 SW 32 52 17 28 1015.4 - 0.0
28/11:30am 12.5 6.6 7.6 72 2.4 SW 28 39 15 21 1015.5 - 0.0
28/11:09am 12.6 5.8 7.0 68 2.7 SW 32 50 17 27 1015.5 - 0.0
28/11:00am 13.1 5.7 6.7 65 3.1 SW 35 46 19 25 1015.5 - 0.0
28/10:32am 12.1 5.3 7.8 75 2.1 SW 33 59 18 32 1015.3 - 0.0
28/10:30am 12.1 5.2 7.4 73 2.3 SW 33 50 18 27 1015.3 - 0.0
28/10:02am 13.1 6.5 6.2 63 3.3 SW 30 50 16 27 1015.1 - 0.0
28/10:00am 13.0 6.4 6.1 63 3.3 SW 30 46 16 25 1015.1 - 0.0
28/09:55am 12.9 6.9 6.9 67 2.9 SW 28 46 15 25 1015.0 - 0.0
28/09:30am 11.5 5.2 7.2 75 2.1 SW 30 44 16 24 1014.8 - 0.0
28/09:00am 10.6 5.1 9.0 90 0.8 SW 28 41 15 22 1014.6 1014.5 4.2
28/08:30am 11.8 5.4 8.4 80 1.7 SW 32 44 17 24 1014.0 - 3.4
28/08:07am 10.8 3.8 7.0 77 1.8 SW 33 52 18 28 1013.7 - 3.4
28/08:00am 10.7 4.0 7.2 79 1.7 SW 32 46 17 25 1013.7 - 3.4
28/07:30am 10.6 4.1 8.2 85 1.2 SW 32 44 17 24 1013.6 - 3.2
28/07:00am 10.0 2.5 7.9 87 1.0 SW 37 61 20 33 1013.4 - 3.2
28/06:37am 11.4 4.8 7.7 78 1.8 WSW 32 52 17 28 1013.1 - 3.0
28/06:30am 10.9 3.7 7.6 80 1.6 WSW 35 52 19 28 1013.1 - 3.0
28/06:20am 10.9 3.3 7.6 80 1.6 SW 37 56 20 30 1013.0 - 3.0
28/06:00am 12.1 3.4 4.2 58 3.6 WSW 39 56 21 30 1012.7 1012.7 3.0
28/05:30am 12.1 4.5 6.0 66 2.9 WSW 35 52 19 28 1012.7 - 2.8
28/05:07am 11.5 4.9 6.2 70 2.5 WSW 30 48 16 26 1012.7 - 2.8
28/05:00am 11.1 5.5 7.2 77 1.9 WSW 26 37 14 20 1012.7 - 2.8
28/04:32am 11.6 4.5 5.6 66 2.8 SW 32 57 17 31 1012.6 - 2.8
28/04:30am 11.9 4.9 6.0 67 2.8 SW 32 44 17 24 1012.7 - 2.8
28/04:04am 12.5 5.9 4.4 58 3.7 WSW 28 46 15 25 1012.5 - 2.8
28/04:00am 12.3 6.1 6.0 65 3.0 SW 28 41 15 22 1012.6 - 2.8
28/03:30am 12.3 5.0 4.5 59 3.6 WSW 32 44 17 24 1012.7 - 2.8
28/03:10am 12.3 4.8 3.6 55 3.9 SW 32 50 17 27 1012.7 - 2.8
28/03:00am 12.3 5.1 5.0 61 3.4 WSW 32 46 17 25 1012.7 1012.7 2.8
28/02:30am 12.3 5.0 4.7 60 3.5 WSW 32 41 17 22 1012.8 - 2.8
28/02:00am 12.0 5.0 4.3 59 3.5 WSW 30 44 16 24 1012.9 - 2.8
28/01:30am 11.7 5.2 6.5 70 2.5 SW 30 43 16 23 1012.9 - 2.8
28/01:00am 12.2 5.6 6.1 66 2.9 SW 30 43 16 23 1013.0 - 2.8
28/12:30am 11.7 5.0 7.4 75 2.1 WSW 32 46 17 25 1013.2 - 2.8
28/12:22am 11.7 4.5 7.8 77 1.9 WSW 35 54 19 29 1013.1 - 2.8
28/12:17am 11.9 3.6 7.6 75 2.1 WSW 41 54 22 29 1013.1 - 2.8
28/12:07am 11.6 4.9 7.5 76 2.0 SW 32 50 17 27 1013.1 - 2.8
28/12:00am 11.5 4.4 8.1 79 1.7 SW 35 50 19 27 1013.0 1013.0 2.8
 
Date/Time
CST
Temp
°C
App
Temp
°C
Dew
Point
°C
Rel
Hum
%
Delta-T
°C
Wind Press
QNH
hPa
Press
MSL
hPa
Rain since
9am
mm
Dir  Spd
km/h
Gust
km/h
Spd
kts
Gust
kts
27/11:56pm 11.8 3.8 7.5 75 2.1 SW 39 50 21 27 1013.0 - 2.8
27/11:30pm 11.5 4.4 5.7 67 2.7 WSW 32 39 17 21 1013.0 - 2.8
27/11:00pm 11.6 4.6 6.8 72 2.3 SW 33 48 18 26 1013.0 - 2.8
27/10:30pm 12.0 4.7 5.6 65 3.0 SW 33 44 18 24 1012.9 - 2.8
27/10:20pm 11.9 4.8 5.7 66 2.9 SW 32 50 17 27 1012.9 - 2.8
27/10:00pm 11.9 4.6 4.7 61 3.3 WSW 32 43 17 23 1012.9 - 2.8
27/09:30pm 11.4 4.0 3.8 59 3.4 WSW 32 50 17 27 1012.8 - 2.8
27/09:10pm 11.6 5.5 6.6 71 2.4 WSW 28 50 15 27 1012.7 - 2.8
27/09:00pm 11.5 5.3 6.0 69 2.6 SW 28 41 15 22 1012.6 1012.6 2.8
27/08:48pm 11.5 5.3 6.2 70 2.5 SW 28 48 15 26 1012.5 - 2.8
27/08:30pm 11.1 4.5 6.0 71 2.4 WSW 30 44 16 24 1012.3 - 2.8
27/08:00pm 11.1 5.0 6.7 74 2.1 SW 28 41 15 22 1012.2 - 2.0
27/07:30pm 11.2 3.4 4.9 65 2.9 SW 35 48 19 26 1012.1 - 2.0
27/07:00pm 11.4 3.7 7.3 76 2.0 SW 37 52 20 28 1011.6 - 2.0
27/06:57pm 11.4 3.8 7.5 77 1.9 SW 37 52 20 28 1011.5 - 2.0
27/06:30pm 12.3 6.2 8.3 76 2.0 WSW 30 44 16 24 1011.1 - 1.8
27/06:00pm 11.9 6.6 8.5 80 1.7 SW 26 35 14 19 1010.9 1010.9 1.8
27/05:30pm 11.6 8.0 9.8 89 0.9 WSW 19 26 10 14 1010.8 - 1.8
27/05:00pm 11.8 6.0 9.4 85 1.2 WSW 30 44 16 24 1010.6 - 1.4
27/04:30pm 12.0 6.3 9.7 86 1.2 SW 30 41 16 22 1010.3 - 1.0
27/04:00pm 12.8 6.6 9.3 79 1.8 SW 32 44 17 24 1010.2 - 0.8
27/03:32pm 12.9 5.9 9.8 81 1.6 SW 37 56 20 30 1009.7 - 0.8
27/03:30pm 12.9 5.5 9.8 81 1.6 SW 39 56 21 30 1009.6 - 0.8
27/03:20pm 13.3 5.9 10.0 80 1.7 SW 39 50 21 27 1009.6 - 0.8
27/03:03pm 14.6 8.3 9.0 69 2.9 WSW 32 50 17 27 1009.4 - 0.8
27/03:00pm 15.0 9.0 10.1 72 2.6 WSW 32 48 17 26 1009.5 1009.4 0.8
27/02:30pm 14.8 9.4 9.4 70 2.8 W 28 43 15 23 1009.3 - 0.8
27/02:00pm 15.0 9.4 8.8 66 3.2 W 28 41 15 22 1009.6 - 0.8
27/01:30pm 15.1 9.0 9.8 70 2.8 W 32 44 17 24 1009.8 - 0.8
27/01:00pm 15.2 9.5 9.9 70 2.8 W 30 43 16 23 1010.0 - 0.8
27/12:30pm 14.9 10.2 10.6 75 2.3 WSW 26 37 14 20 1010.3 - 0.8
27/12:00pm 15.1 11.1 11.8 81 1.8 W 24 35 13 19 1010.6 1010.5 0.8
27/11:30am 15.1 11.5 13.1 88 1.1 W 24 35 13 19 1011.0 - 0.8
27/11:00am 15.4 11.1 13.1 86 1.3 W 28 35 15 19 1011.2 - 0.4
27/10:30am 15.7 12.1 14.1 90 0.9 W 26 35 14 19 1011.4 - 0.4
27/10:00am 15.1 10.4 13.3 89 1.0 WNW 30 41 16 22 1011.3 - 0.4
27/09:30am 16.5 12.2 13.1 80 1.9 NW 28 39 15 21 1011.2 - 0.0
27/09:00am 16.7 13.1 14.3 86 1.4 NW 26 35 14 19 1011.5 1011.5 0.2
27/08:30am 16.2 12.8 13.6 84 1.5 NW 24 33 13 18 1011.5 - 0.2
27/08:00am 15.7 11.9 12.4 81 1.8 WNW 24 33 13 18 1011.5 - 0.2
27/07:30am 15.3 12.1 12.0 81 1.8 NW 20 30 11 16 1011.5 - 0.2
27/07:00am 15.3 11.6 11.4 77 2.1 NW 22 32 12 17 1011.4 - 0.2
27/06:30am 15.4 11.5 10.7 73 2.5 NW 22 30 12 16 1011.2 - 0.2
27/06:00am 15.5 12.5 10.8 73 2.5 NNW 17 22 9 12 1011.2 1011.2 0.2
27/05:30am 15.8 12.9 11.0 73 2.6 NNW 17 26 9 14 1011.3 - 0.2
27/05:00am 15.5 12.7 11.2 75 2.3 NNW 17 26 9 14 1011.4 - 0.2
27/04:30am 15.3 12.8 12.2 82 1.7 N 17 28 9 15 1011.7 - 0.2
27/04:00am 15.7 13.1 12.1 79 2.0 N 17 24 9 13 1011.9 - 0.2
27/03:30am 16.0 13.1 11.0 72 2.7 NNW 17 20 9 11 1012.3 - 0.2
27/03:00am 16.3 13.3 10.7 69 3.0 NNW 17 22 9 12 1012.7 1012.7 0.2
27/02:30am 16.1 12.6 10.1 67 3.2 NNW 19 24 10 13 1012.9 - 0.2
27/02:00am 16.0 13.0 10.8 71 2.8 NNW 17 24 9 13 1013.2 - 0.2
27/01:30am 16.0 13.2 11.4 74 2.5 NNW 17 24 9 13 1013.5 - 0.2
27/01:00am 15.9 13.0 10.9 72 2.7 NNW 17 26 9 14 1013.7 - 0.2
27/12:30am 15.8 12.8 11.8 77 2.2 N 19 26 10 14 1014.0 - 0.2
27/12:00am 15.9 13.0 12.3 79 2.0 N 19 24 10 13 1014.3 1014.2 0.2
 
Date/Time
CST
Temp
°C
App
Temp
°C
Dew
Point
°C
Rel
Hum
%
Delta-T
°C
Wind Press
QNH
hPa
Press
MSL
hPa
Rain since
9am
mm
Dir  Spd
km/h
Gust
km/h
Spd
kts
Gust
kts
26/11:30pm 15.5 13.2 13.0 85 1.4 N 17 24 9 13 1014.4 - 0.2
26/11:00pm 15.3 12.7 13.3 88 1.1 N 19 24 10 13 1014.7 - 0.2
26/10:30pm 15.1 13.0 13.5 90 0.9 N 17 20 9 11 1015.0 - 0.2
26/10:00pm 15.2 13.6 13.8 91 0.8 N 15 20 8 11 1015.2 - 0.2
26/09:30pm 15.0 13.4 13.8 92 0.7 N 15 24 8 13 1015.4 - 0.2
26/09:00pm 15.0 13.4 13.8 92 0.7 N 15 20 8 11 1015.6 1015.5 0.2
26/08:30pm 15.0 12.8 13.4 90 0.9 N 17 24 9 13 1015.8 - 0.2
26/08:00pm 15.1 12.4 12.9 87 1.2 N 19 24 10 13 1015.9 - 0.2
26/07:30pm 14.9 12.6 13.1 89 1.0 N 17 20 9 11 1015.8 - 0.2
26/07:00pm 14.8 12.6 13.2 90 0.9 N 17 20 9 11 1015.9 - 0.2
26/06:30pm 14.9 12.7 13.3 90 0.9 N 17 24 9 13 1015.9 - 0.2
26/06:00pm 14.9 12.6 13.1 89 1.0 N 17 24 9 13 1016.1 1016.0 0.2
26/05:30pm 14.9 13.5 13.3 90 0.9 N 13 19 7 10 1016.0 - 0.2
26/05:00pm 15.5 13.7 13.4 87 1.2 N 15 20 8 11 1016.2 - 0.2
26/04:30pm 15.7 13.2 12.4 81 1.8 N 17 22 9 12 1016.3 - 0.2
26/04:00pm 15.4 13.0 12.5 83 1.6 N 17 24 9 13 1016.4 - 0.2
26/03:30pm 16.4 13.4 12.4 77 2.2 N 20 26 11 14 1016.5 - 0.2
26/03:00pm 16.4 13.5 12.8 79 2.0 N 20 28 11 15 1016.7 1016.7 0.2
26/02:30pm 16.9 13.7 13.2 79 2.1 N 22 30 12 16 1017.1 - 0.2
26/02:00pm 16.9 13.6 12.8 77 2.3 N 22 30 12 16 1017.5 - 0.2
26/01:30pm 16.9 14.0 13.0 78 2.2 NNW 20 28 11 15 1017.8 - 0.2
26/01:00pm 17.2 13.9 12.7 75 2.5 N 22 33 12 18 1018.2 - 0.2
26/12:30pm 17.0 14.2 13.3 79 2.1 N 20 28 11 15 1018.5 - 0.0
26/12:00pm 16.5 13.5 12.5 77 2.2 NNW 20 28 11 15 1019.0 1019.0 0.0
26/11:30am 16.2 13.7 12.2 77 2.2 N 17 26 9 14 1019.5 - 0.0
26/11:00am 16.3 14.0 13.1 81 1.8 N 17 26 9 14 1019.8 - 0.0
26/10:30am 15.0 12.6 12.6 85 1.3 N 17 24 9 13 1020.3 - 0.0
26/10:00am 15.0 12.0 12.6 85 1.3 N 20 26 11 14 1020.5 - 0.0
26/09:30am 14.7 12.1 12.1 84 1.4 N 17 22 9 12 1020.6 - 0.0
26/09:00am 14.3 11.9 12.5 89 1.0 N 17 22 9 12 1020.9 1020.8 0.8
26/08:30am 14.1 11.7 12.6 91 0.8 N 17 22 9 12 1021.0 - 0.8
26/08:00am 13.3 10.6 11.8 91 0.8 N 17 24 9 13 1021.1 - 0.6
26/07:30am 12.9 11.9 12.2 95 0.4 NE 9 17 5 9 1021.0 - 0.6
26/07:00am 12.3 10.7 11.5 95 0.4 ENE 11 13 6 7 1020.8 - 0.6
26/06:30am 11.5 9.3 10.9 96 0.3 ENE 13 15 7 8 1020.8 - 0.6
26/06:00am 11.5 9.3 10.7 95 0.4 ENE 13 15 7 8 1020.8 1020.7 0.6
26/05:30am 11.1 8.8 10.3 95 0.4 ENE 13 15 7 8 1020.8 - 0.6
26/05:00am 11.1 8.8 10.3 95 0.4 ENE 13 15 7 8 1020.5 - 0.6
26/04:30am 11.0 9.0 10.2 95 0.4 ENE 11 13 6 7 1020.4 - 0.6
26/04:00am 11.4 9.5 10.4 94 0.5 NE 11 13 6 7 1020.6 - 0.6

Other Formats:

Comma delimited format used in spreadsheet applications
http://www.bom.gov.au/fwo/IDS60801/IDS60801.95805.axf

JavaScript Object Notation format (JSON) in row-major order
http://www.bom.gov.au/fwo/IDS60801/IDS60801.95805.json